Time;durP1;ratioP1;P1;durP2;ratioP2;P2;SDS_P1;SDS_P2;PMS_P1;PMS_P2;Temp;Humidity;BMP_temperature;BMP_pressure;BME280_temperature;BME280_humidity;BME280_pressure;Samples;Min_cycle;Max_cycle;Signal;HPM_P1;HPM_P2
2023/04/05 00:00:09;;;;;;;6.60;4.00;;;3.70;99.90;;;;;;5030873;28;20220;-70
2023/04/05 00:03:01;;;;;;;7.70;3.70;;;3.60;99.90;;;;;;5045544;28;20441;-70
2023/04/05 00:05:53;;;;;;;7.80;4.20;;;3.50;99.90;;;;;;5035646;28;20221;-71
2023/04/05 00:08:43;;;;;;;7.53;3.77;;;3.50;99.90;;;;;;5025701;28;21018;-72
2023/04/05 00:11:33;;;;;;;9.20;3.60;;;3.60;99.90;;;;;;5025579;28;20288;-71
2023/04/05 00:14:22;;;;;;;6.03;3.70;;;3.60;99.90;;;;;;5009459;28;20229;-71
2023/04/05 00:17:15;;;;;;;5.83;3.77;;;3.50;99.90;;;;;;5019962;28;20225;-70
2023/04/05 00:20:06;;;;;;;6.10;3.87;;;3.70;99.90;;;;;;5026882;28;20911;-72
2023/04/05 00:22:55;;;;;;;11.83;3.87;;;3.60;99.90;;;;;;5026788;28;20753;-70
2023/04/05 00:25:45;;;;;;;8.13;4.20;;;3.60;99.90;;;;;;5029740;28;20330;-70
2023/04/05 00:28:35;;;;;;;8.43;4.20;;;3.60;99.90;;;;;;5034574;28;21340;-70
2023/04/05 00:31:24;;;;;;;8.30;4.10;;;3.60;99.90;;;;;;5040034;28;20232;-70
2023/04/05 00:34:13;;;;;;;7.70;4.30;;;3.60;99.90;;;;;;5034145;28;20218;-70
2023/04/05 00:37:02;;;;;;;7.47;4.30;;;3.50;99.90;;;;;;5035582;28;20727;-72
2023/04/05 00:39:52;;;;;;;6.13;4.00;;;3.60;99.90;;;;;;5020284;28;20236;-71
2023/04/05 00:42:41;;;;;;;7.53;3.80;;;3.50;99.90;;;;;;5009274;28;20225;-71
2023/04/05 00:45:31;;;;;;;9.20;3.87;;;3.50;99.90;;;;;;5021048;28;20315;-70
2023/04/05 00:48:20;;;;;;;9.53;4.87;;;3.50;99.90;;;;;;5038778;28;20237;-71
2023/04/05 00:51:11;;;;;;;6.73;3.90;;;3.50;99.90;;;;;;5035937;28;20662;-72
2023/04/05 00:54:00;;;;;;;7.97;4.80;;;3.60;99.90;;;;;;5034907;28;20267;-72
2023/04/05 00:56:51;;;;;;;8.30;4.67;;;3.50;99.90;;;;;;5042500;28;20814;-72
2023/04/05 00:59:40;;;;;;;9.30;4.83;;;3.50;99.90;;;;;;5045964;28;20514;-72
2023/04/05 01:02:34;;;;;;;8.80;5.03;;;3.60;99.90;;;;;;5039869;28;20699;-72
2023/04/05 01:05:35;;;;;;;9.80;5.57;;;3.50;99.90;;;;;;5042098;28;20240;-72
2023/04/05 01:08:34;;;;;;;10.50;5.07;;;3.40;99.90;;;;;;5015135;28;20554;-71
2023/04/05 01:11:25;;;;;;;9.77;5.43;;;3.60;99.90;;;;;;5027211;28;20393;-72
2023/04/05 01:14:14;;;;;;;8.63;5.13;;;3.50;99.90;;;;;;5006516;28;20677;-70
2023/04/05 01:17:15;;;;;;;13.13;5.50;;;3.30;99.90;;;;;;5012067;28;20224;-71
2023/04/05 01:20:09;;;;;;;12.77;5.47;;;3.40;99.90;;;;;;5028551;28;20331;-71
2023/04/05 01:23:13;;;;;;;11.40;5.37;;;3.30;99.90;;;;;;5040179;28;20278;-70
2023/04/05 01:26:37;;;;;;;10.40;5.77;;;3.30;99.90;;;;;;5044637;28;20738;-72
2023/04/05 01:29:52;;;;;;;10.90;5.70;;;3.20;99.90;;;;;;5039786;28;20222;-70
2023/04/05 01:32:52;;;;;;;9.30;5.33;;;3.20;99.90;;;;;;5046906;28;20235;-71
2023/04/05 01:35:49;;;;;;;10.57;5.37;;;3.30;99.90;;;;;;5046041;28;20228;-70
2023/04/05 01:38:40;;;;;;;10.20;5.13;;;3.10;99.90;;;;;;5047464;28;20236;-69
2023/04/05 01:41:30;;;;;;;11.40;5.80;;;3.00;99.90;;;;;;5022103;28;20296;-68
2023/04/05 01:44:19;;;;;;;10.10;4.93;;;2.80;99.90;;;;;;5036476;28;20313;-70
2023/04/05 01:47:08;;;;;;;8.70;4.77;;;2.70;99.90;;;;;;5029664;28;20814;-70
2023/04/05 01:49:58;;;;;;;11.73;5.53;;;2.90;99.90;;;;;;5045073;28;20588;-69
2023/04/05 01:52:47;;;;;;;9.13;4.30;;;2.90;99.90;;;;;;5037582;28;20229;-70
2023/04/05 01:55:37;;;;;;;8.53;4.70;;;2.90;99.90;;;;;;5019918;28;20213;-68
2023/04/05 01:58:26;;;;;;;13.00;5.20;;;2.70;99.90;;;;;;5027657;28;20224;-69
2023/04/05 02:01:15;;;;;;;10.83;5.57;;;2.50;99.90;;;;;;5041503;28;20224;-69
2023/04/05 02:04:04;;;;;;;12.70;6.00;;;2.40;99.90;;;;;;5024614;28;20241;-71
2023/04/05 02:06:54;;;;;;;12.37;5.97;;;2.70;99.90;;;;;;5027760;28;20321;-71
2023/04/05 02:09:43;;;;;;;12.90;6.13;;;2.70;99.90;;;;;;5025931;28;20422;-70
2023/04/05 02:12:33;;;;;;;11.87;6.70;;;2.70;99.90;;;;;;5028511;28;20258;-71
2023/04/05 02:15:22;;;;;;;13.43;7.00;;;2.70;99.90;;;;;;5043917;28;20311;-71
2023/04/05 02:18:12;;;;;;;11.00;6.70;;;2.60;99.90;;;;;;5041511;28;20239;-70
2023/04/05 02:21:04;;;;;;;12.37;6.00;;;2.60;99.90;;;;;;5043599;28;20220;-71
2023/04/05 02:23:55;;;;;;;11.60;5.83;;;2.50;99.90;;;;;;5035254;28;20604;-71
2023/04/05 02:26:44;;;;;;;13.27;6.73;;;2.70;99.90;;;;;;5017915;28;20814;-69
2023/04/05 02:29:33;;;;;;;13.97;7.17;;;2.50;99.90;;;;;;5038347;28;20507;-71
2023/04/05 02:32:22;;;;;;;14.30;6.17;;;2.60;99.90;;;;;;5038061;28;20249;-73
2023/04/05 02:35:11;;;;;;;11.40;6.33;;;2.60;99.90;;;;;;5039238;28;20231;-73
2023/04/05 02:38:00;;;;;;;12.13;6.50;;;2.40;99.90;;;;;;5022184;28;20224;-72
2023/04/05 02:40:51;;;;;;;10.40;5.43;;;2.70;99.90;;;;;;5019952;28;20325;-73
2023/04/05 02:43:39;;;;;;;10.27;6.30;;;2.70;99.90;;;;;;5040193;28;20235;-73
2023/04/05 02:46:28;;;;;;;11.33;5.63;;;2.80;99.90;;;;;;5040136;28;20219;-73
2023/04/05 02:49:18;;;;;;;8.67;5.03;;;2.80;99.90;;;;;;5038964;28;20238;-73
2023/04/05 02:52:07;;;;;;;10.90;5.37;;;2.70;99.90;;;;;;5054863;28;20231;-72
2023/04/05 02:54:56;;;;;;;10.67;4.97;;;2.90;99.90;;;;;;5026895;28;20316;-74
2023/04/05 02:57:51;;;;;;;9.30;4.60;;;3.00;99.90;;;;;;5020708;28;20221;-72
2023/04/05 03:00:51;;;;;;;8.27;4.67;;;3.00;99.90;;;;;;5026986;28;20232;-73
2023/04/05 03:03:47;;;;;;;10.10;4.77;;;2.90;99.90;;;;;;5026758;28;20242;-70
2023/04/05 03:06:37;;;;;;;10.83;5.20;;;2.90;99.90;;;;;;5048330;28;21088;-71
2023/04/05 03:09:28;;;;;;;9.97;5.00;;;2.80;99.90;;;;;;5020268;28;20216;-71
2023/04/05 03:12:20;;;;;;;11.10;5.07;;;2.80;99.90;;;;;;5026092;28;20223;-72
2023/04/05 03:15:12;;;;;;;10.13;4.50;;;2.90;99.90;;;;;;5020952;28;20288;-71
2023/04/05 03:18:05;;;;;;;7.40;4.50;;;2.80;99.90;;;;;;5026249;28;20252;-70
2023/04/05 03:20:55;;;;;;;10.97;5.30;;;2.80;99.90;;;;;;5024757;28;20222;-70
2023/04/05 03:23:47;;;;;;;9.50;5.37;;;2.90;99.90;;;;;;5035022;28;20676;-69
2023/04/05 03:26:40;;;;;;;11.20;5.20;;;2.80;99.90;;;;;;5033621;28;20262;-71
2023/04/05 03:29:30;;;;;;;8.97;5.10;;;2.90;99.90;;;;;;5037456;28;20221;-69
2023/04/05 03:32:27;;;;;;;9.97;5.23;;;2.80;99.90;;;;;;5022976;28;20233;-69
2023/04/05 03:35:24;;;;;;;9.53;5.10;;;2.70;99.90;;;;;;5017355;28;20757;-72
2023/04/05 03:38:13;;;;;;;9.20;4.90;;;2.60;99.90;;;;;;5025115;28;20230;-71
2023/04/05 03:41:09;;;;;;;9.43;5.23;;;2.70;99.90;;;;;;5035020;28;20215;-70
2023/04/05 03:44:00;;;;;;;10.57;4.90;;;2.80;99.90;;;;;;5027254;28;20227;-68
2023/04/05 03:47:14;;;;;;;9.47;5.00;;;2.80;99.90;;;;;;5038169;28;20325;-73
2023/04/05 03:50:06;;;;;;;9.10;4.97;;;2.90;99.90;;;;;;5020739;28;20280;-69
2023/04/05 03:52:55;;;;;;;7.73;4.53;;;2.90;99.90;;;;;;5047630;28;20279;-71
2023/04/05 03:55:48;;;;;;;9.50;4.80;;;2.70;99.90;;;;;;5042377;28;20224;-70
2023/04/05 03:58:40;;;;;;;10.63;5.50;;;2.70;99.90;;;;;;5020299;28;20257;-73
2023/04/05 04:01:30;;;;;;;10.53;5.23;;;2.80;99.90;;;;;;5004898;28;20944;-72
2023/04/05 04:04:19;;;;;;;8.83;5.03;;;3.00;99.90;;;;;;5016347;28;20665;-71
2023/04/05 04:07:10;;;;;;;8.37;4.73;;;3.00;99.90;;;;;;4996767;28;20591;-71
2023/04/05 04:09:59;;;;;;;9.43;5.10;;;2.70;99.90;;;;;;5010932;28;20542;-68
2023/04/05 04:12:48;;;;;;;12.63;5.10;;;2.80;99.90;;;;;;5019225;28;20323;-71
2023/04/05 04:15:39;;;;;;;9.50;4.43;;;3.00;99.90;;;;;;5049052;28;20226;-71
2023/04/05 04:18:42;;;;;;;9.27;4.60;;;3.10;99.90;;;;;;5008191;28;20228;-71
2023/04/05 04:22:19;;;;;;;10.43;5.10;;;3.00;99.90;;;;;;4944823;28;20222;-72
2023/04/05 04:25:29;;;;;;;9.63;4.83;;;3.10;99.90;;;;;;4965529;28;20241;-72
2023/04/05 04:28:57;;;;;;;11.70;5.33;;;3.20;99.90;;;;;;4999839;28;20227;-73
2023/04/05 04:32:09;;;;;;;9.23;5.80;;;3.20;99.90;;;;;;4987417;28;20795;-72
2023/04/05 04:35:24;;;;;;;12.43;5.80;;;3.20;99.90;;;;;;5034051;28;21004;-71
2023/04/05 04:38:20;;;;;;;13.23;7.80;;;3.10;99.90;;;;;;5026641;28;21034;-72
2023/04/05 04:41:34;;;;;;;24.37;12.33;;;3.10;99.90;;;;;;5039049;28;20231;-72
2023/04/05 04:44:49;;;;;;;33.10;15.67;;;3.20;99.90;;;;;;5006702;28;20232;-72
2023/04/05 04:47:56;;;;;;;36.83;17.37;;;3.30;99.90;;;;;;5025776;28;20215;-71
2023/04/05 04:51:08;;;;;;;38.83;19.07;;;3.10;99.90;;;;;;5001196;28;20705;-72
2023/04/05 04:54:00;;;;;;;43.10;23.43;;;2.90;99.90;;;;;;5016391;28;20237;-71
2023/04/05 04:56:48;;;;;;;47.50;24.23;;;3.10;99.90;;;;;;5031348;28;20273;-71
2023/04/05 04:59:37;;;;;;;54.17;24.70;;;3.00;99.90;;;;;;5012900;28;20240;-71
2023/04/05 05:02:28;;;;;;;49.87;25.53;;;3.10;99.90;;;;;;5018295;28;20242;-70
2023/04/05 05:05:21;;;;;;;44.33;22.23;;;3.10;99.90;;;;;;5027339;28;20246;-73
2023/04/05 05:08:13;;;;;;;50.40;23.17;;;2.90;99.90;;;;;;5026917;28;20837;-76
2023/04/05 05:11:07;;;;;;;47.67;22.07;;;2.80;99.90;;;;;;5023932;28;20224;-71
2023/04/05 05:13:55;;;;;;;50.87;22.83;;;2.80;99.90;;;;;;5016044;28;20241;-69
2023/04/05 05:16:46;;;;;;;42.53;22.10;;;2.80;99.90;;;;;;5031131;28;20225;-69
2023/04/05 05:19:35;;;;;;;44.73;23.77;;;2.80;99.90;;;;;;5012928;28;20237;-69
2023/04/05 05:22:23;;;;;;;47.20;23.60;;;2.80;99.90;;;;;;5016180;28;20289;-73
2023/04/05 05:25:13;;;;;;;48.30;23.97;;;2.90;99.90;;;;;;5019014;28;20228;-74
2023/04/05 05:28:03;;;;;;;45.80;24.03;;;2.80;99.90;;;;;;5016241;28;20750;-73
2023/04/05 05:30:52;;;;;;;47.27;24.17;;;3.00;99.90;;;;;;5012743;28;20229;-71
2023/04/05 05:33:41;;;;;;;49.87;23.77;;;3.30;99.90;;;;;;5010395;28;20258;-71
2023/04/05 05:36:29;;;;;;;53.97;25.47;;;3.30;99.90;;;;;;5014640;28;20450;-72
2023/04/05 05:39:19;;;;;;;50.47;24.97;;;3.20;99.90;;;;;;5008873;28;20233;-72
2023/04/05 05:42:08;;;;;;;53.87;24.83;;;3.20;99.90;;;;;;5017094;28;20653;-72
2023/04/05 05:45:00;;;;;;;41.17;18.10;;;3.40;99.90;;;;;;5016180;28;20217;-74
2023/04/05 05:47:49;;;;;;;37.03;18.87;;;3.30;99.90;;;;;;5012737;28;20280;-72
2023/04/05 05:50:39;;;;;;;48.87;22.00;;;3.10;99.90;;;;;;5024009;28;20593;-73
2023/04/05 05:53:28;;;;;;;44.67;22.63;;;2.90;99.90;;;;;;5015481;28;20249;-72
2023/04/05 05:56:17;;;;;;;39.53;18.23;;;2.90;99.90;;;;;;5023941;28;20257;-72
2023/04/05 05:59:06;;;;;;;39.37;17.43;;;2.90;99.90;;;;;;5009052;28;20247;-72
2023/04/05 06:01:56;;;;;;;38.70;19.93;;;2.90;99.90;;;;;;5017402;28;20251;-76
2023/04/05 06:04:45;;;;;;;37.63;20.03;;;2.90;99.90;;;;;;5015888;28;20322;-76
2023/04/05 06:07:36;;;;;;;45.27;25.87;;;3.10;99.90;;;;;;5015085;28;20222;-75
2023/04/05 06:10:25;;;;;;;50.93;27.40;;;3.20;99.90;;;;;;5018167;28;20236;-74
2023/04/05 06:13:14;;;;;;;35.90;17.87;;;3.20;99.90;;;;;;5037998;28;20283;-73
2023/04/05 06:16:04;;;;;;;37.20;17.30;;;3.40;99.90;;;;;;5040286;28;20235;-72
2023/04/05 06:18:55;;;;;;;38.77;17.57;;;3.60;99.90;;;;;;5036686;28;20337;-73
2023/04/05 06:21:44;;;;;;;32.90;17.10;;;3.50;99.90;;;;;;5021542;28;20237;-72
2023/04/05 06:24:33;;;;;;;35.63;16.03;;;3.60;99.90;;;;;;5018722;28;20221;-72
2023/04/05 06:27:21;;;;;;;26.60;15.07;;;3.70;99.90;;;;;;5014172;28;20577;-73
2023/04/05 06:30:12;;;;;;;26.53;15.30;;;3.80;99.90;;;;;;5018648;28;20570;-72
2023/04/05 06:33:01;;;;;;;30.60;14.73;;;3.80;99.90;;;;;;5038292;28;20273;-73
2023/04/05 06:35:51;;;;;;;31.27;15.67;;;3.60;99.90;;;;;;5029354;28;20232;-72
2023/04/05 06:38:40;;;;;;;26.23;13.53;;;3.70;99.90;;;;;;5044475;28;20597;-71
2023/04/05 06:41:29;;;;;;;22.80;11.90;;;3.70;99.90;;;;;;5044310;28;20573;-73
2023/04/05 06:44:18;;;;;;;22.63;11.83;;;3.60;99.90;;;;;;5046937;28;20245;-73
2023/04/05 06:47:07;;;;;;;22.93;12.90;;;3.70;99.90;;;;;;5040150;28;20700;-73
2023/04/05 06:49:55;;;;;;;27.47;12.70;;;3.70;99.90;;;;;;5038602;28;20911;-72
2023/04/05 06:52:46;;;;;;;23.70;13.23;;;3.60;99.90;;;;;;5040781;28;20233;-71
2023/04/05 06:55:34;;;;;;;33.33;15.43;;;3.70;99.90;;;;;;5039641;28;20351;-72
2023/04/05 06:58:24;;;;;;;30.10;16.37;;;3.80;99.90;;;;;;5043345;28;20232;-71
2023/04/05 07:01:12;;;;;;;35.27;17.20;;;3.80;99.90;;;;;;5043056;28;20236;-71
2023/04/05 07:04:02;;;;;;;38.37;19.50;;;3.80;99.90;;;;;;5038743;28;20239;-72
2023/04/05 07:06:52;;;;;;;37.93;19.67;;;3.70;99.90;;;;;;5039201;28;20216;-72
2023/04/05 07:09:42;;;;;;;41.50;19.63;;;3.90;99.90;;;;;;5018254;28;20244;-72
2023/04/05 07:12:32;;;;;;;36.57;17.43;;;3.80;99.90;;;;;;5037095;28;20220;-75
2023/04/05 07:15:21;;;;;;;42.20;18.90;;;3.80;99.90;;;;;;5040612;28;20248;-76
2023/04/05 07:18:10;;;;;;;35.30;16.13;;;4.00;99.90;;;;;;5023632;28;20607;-75
2023/04/05 07:21:00;;;;;;;28.43;14.43;;;4.00;99.90;;;;;;5032169;28;20776;-74
2023/04/05 07:23:52;;;;;;;29.40;13.70;;;3.90;99.90;;;;;;5022557;28;20232;-76
2023/04/05 07:26:43;;;;;;;34.53;16.40;;;3.80;99.90;;;;;;5012452;28;20221;-76
2023/04/05 07:29:33;;;;;;;22.50;12.23;;;3.80;99.90;;;;;;5035586;28;20225;-74
2023/04/05 07:32:24;;;;;;;35.67;16.80;;;3.80;99.90;;;;;;5018040;28;20229;-75
2023/04/05 07:35:13;;;;;;;30.53;15.03;;;3.60;99.90;;;;;;5021144;28;20256;-73
2023/04/05 07:38:02;;;;;;;31.23;17.40;;;3.60;99.90;;;;;;5023197;28;20220;-73
2023/04/05 07:40:52;;;;;;;35.23;17.30;;;3.80;99.90;;;;;;5033369;28;20755;-75
2023/04/05 07:43:42;;;;;;;40.90;18.63;;;3.90;99.90;;;;;;5034519;28;20696;-75
2023/04/05 07:46:30;;;;;;;36.53;19.20;;;3.90;99.90;;;;;;5035425;28;20303;-74
2023/04/05 07:49:25;;;;;;;29.17;13.50;;;3.90;99.90;;;;;;5025972;28;20231;-74
2023/04/05 07:52:14;;;;;;;24.20;13.77;;;3.90;99.90;;;;;;5020213;28;20232;-72
2023/04/05 07:55:03;;;;;;;27.67;11.70;;;3.90;99.90;;;;;;5011434;28;20235;-79
2023/04/05 07:57:52;;;;;;;19.60;10.97;;;4.10;99.90;;;;;;5024305;28;20312;-79
2023/04/05 08:00:42;;;;;;;19.43;10.33;;;4.10;99.90;;;;;;5002216;28;20339;-78
2023/04/05 08:03:33;;;;;;;15.80;9.20;;;4.10;99.90;;;;;;5011938;28;20235;-77
2023/04/05 08:06:23;;;;;;;18.37;9.03;;;4.20;99.90;;;;;;5036906;28;20373;-80
2023/04/05 08:09:12;;;;;;;25.30;10.73;;;4.30;99.90;;;;;;5035120;28;22072;-76
2023/04/05 08:12:02;;;;;;;24.90;12.33;;;4.50;99.90;;;;;;5023559;28;20228;-73
2023/04/05 08:14:51;;;;;;;20.97;11.60;;;4.50;99.90;;;;;;5040040;28;20537;-71
2023/04/05 08:17:41;;;;;;;23.87;12.30;;;4.60;99.90;;;;;;5027605;28;20229;-77
2023/04/05 08:20:30;;;;;;;27.63;14.37;;;4.50;99.90;;;;;;5031666;28;20760;-74
2023/04/05 08:23:19;;;;;;;56.77;14.23;;;4.40;99.90;;;;;;5030998;28;20240;-73
2023/04/05 08:26:08;;;;;;;33.30;11.17;;;4.40;99.90;;;;;;5031585;28;20229;-75
2023/04/05 08:28:58;;;;;;;20.67;10.00;;;4.40;99.90;;;;;;5020628;28;20232;-78
2023/04/05 08:31:47;;;;;;;20.50;8.63;;;4.40;99.90;;;;;;5021314;28;20268;-74
2023/04/05 08:34:38;;;;;;;14.40;7.37;;;4.60;99.90;;;;;;5020114;28;20222;-71
2023/04/05 08:37:27;;;;;;;12.80;7.43;;;4.70;99.90;;;;;;5017629;28;20228;-73
2023/04/05 08:40:18;;;;;;;15.73;8.00;;;4.60;99.90;;;;;;5016192;28;20225;-74
2023/04/05 08:43:13;;;;;;;16.23;6.83;;;4.60;99.90;;;;;;5029477;28;20233;-75
2023/04/05 08:46:05;;;;;;;15.33;7.77;;;4.80;99.90;;;;;;5017718;28;20243;-70
2023/04/05 08:48:55;;;;;;;22.17;7.63;;;4.70;99.90;;;;;;5035019;28;20224;-71
2023/04/05 08:51:45;;;;;;;13.87;7.20;;;4.60;99.90;;;;;;5023634;28;20315;-76
2023/04/05 08:54:34;;;;;;;20.63;8.30;;;4.70;99.90;;;;;;5019430;28;20233;-76
2023/04/05 08:57:26;;;;;;;34.13;7.93;;;5.00;99.90;;;;;;5033146;28;20573;-78
2023/04/05 09:00:16;;;;;;;15.03;7.70;;;5.00;99.90;;;;;;5029705;28;20720;-79
2023/04/05 09:03:06;;;;;;;14.90;7.37;;;4.90;99.90;;;;;;5030753;28;20275;-76
2023/04/05 09:05:58;;;;;;;45.90;8.97;;;4.90;99.90;;;;;;5034101;28;20656;-77
2023/04/05 09:08:50;;;;;;;12.73;6.60;;;4.90;99.90;;;;;;5041363;28;20786;-77
2023/04/05 09:11:40;;;;;;;14.57;7.40;;;4.90;99.90;;;;;;5033365;28;20311;-74
2023/04/05 09:14:30;;;;;;;15.03;7.23;;;5.10;99.90;;;;;;5015655;28;20230;-77
2023/04/05 09:17:19;;;;;;;16.57;7.63;;;5.00;99.90;;;;;;5022379;28;20256;-78
2023/04/05 09:20:09;;;;;;;28.97;8.93;;;4.90;99.90;;;;;;5041002;28;20294;-74
2023/04/05 09:23:00;;;;;;;23.43;7.80;;;5.00;99.90;;;;;;5026122;28;20335;-75
2023/04/05 09:25:51;;;;;;;17.73;7.90;;;5.00;99.90;;;;;;5031118;28;20928;-75
2023/04/05 09:28:42;;;;;;;13.20;6.90;;;5.10;99.90;;;;;;5024454;28;20341;-75
2023/04/05 09:31:33;;;;;;;11.60;6.40;;;5.20;99.90;;;;;;5014611;28;20227;-73
2023/04/05 09:34:26;;;;;;;9.30;6.03;;;5.30;99.90;;;;;;5017914;28;20235;-80
2023/04/05 09:37:17;;;;;;;9.00;5.33;;;5.00;99.90;;;;;;5030977;28;20769;-81
2023/04/05 09:40:09;;;;;;;10.33;5.30;;;5.00;99.90;;;;;;5022321;28;20250;-79
2023/04/05 09:42:59;;;;;;;11.77;5.60;;;5.00;99.90;;;;;;5025890;28;20280;-80
2023/04/05 09:45:48;;;;;;;16.60;6.20;;;5.00;99.90;;;;;;5033432;28;20256;-80
2023/04/05 09:48:48;;;;;;;40.83;8.13;;;5.20;99.90;;;;;;5035680;28;20221;-81
2023/04/05 09:51:38;;;;;;;18.40;7.60;;;5.20;99.90;;;;;;5018797;28;20228;-73
2023/04/05 09:54:41;;;;;;;26.20;7.63;;;5.30;99.90;;;;;;5026250;28;20222;-72
2023/04/05 09:57:36;;;;;;;18.83;6.30;;;5.30;99.90;;;;;;5037497;28;22381;-78
2023/04/05 10:00:26;;;;;;;11.67;5.90;;;5.40;99.90;;;;;;5033552;28;20637;-74
2023/04/05 10:03:16;;;;;;;13.73;6.23;;;5.30;99.90;;;;;;5037541;28;20233;-76
2023/04/05 10:06:08;;;;;;;10.23;4.53;;;5.40;99.90;;;;;;5035235;28;20236;-75
2023/04/05 10:08:58;;;;;;;8.60;4.50;;;5.40;99.90;;;;;;5037777;28;20260;-76
2023/04/05 10:11:47;;;;;;;13.53;5.30;;;5.60;99.90;;;;;;5036560;28;20224;-77
2023/04/05 10:14:37;;;;;;;8.43;5.70;;;5.40;99.90;;;;;;5025769;28;20252;-77
2023/04/05 10:17:31;;;;;;;10.73;5.77;;;5.20;99.90;;;;;;5024253;28;20220;-74
2023/04/05 10:20:21;;;;;;;13.37;5.70;;;5.30;99.90;;;;;;5023467;28;20308;-80
2023/04/05 10:23:17;;;;;;;13.00;5.53;;;4.90;99.90;;;;;;5041948;28;20884;-76
2023/04/05 10:26:15;;;;;;;11.57;5.37;;;4.80;99.90;;;;;;5038015;28;20274;-74
2023/04/05 10:29:12;;;;;;;9.00;5.60;;;5.00;99.90;;;;;;5018241;28;20222;-72
2023/04/05 10:32:09;;;;;;;10.00;5.40;;;5.00;99.90;;;;;;5030130;28;20232;-78
2023/04/05 10:35:09;;;;;;;13.23;6.10;;;5.20;99.90;;;;;;5034183;28;20580;-75
2023/04/05 10:38:12;;;;;;;9.10;4.67;;;5.60;99.90;;;;;;5032556;28;20336;-76
2023/04/05 10:41:13;;;;;;;12.97;5.40;;;5.60;99.90;;;;;;5023358;28;20316;-78
2023/04/05 10:44:05;;;;;;;10.10;5.90;;;5.40;99.90;;;;;;5023989;28;20229;-78
2023/04/05 10:47:16;;;;;;;12.77;6.07;;;5.60;99.90;;;;;;5017343;28;20249;-75
2023/04/05 10:50:12;;;;;;;12.33;6.13;;;5.60;99.90;;;;;;5036339;28;20224;-76
2023/04/05 10:53:03;;;;;;;10.77;5.73;;;5.40;99.90;;;;;;5028953;28;20252;-78
2023/04/05 10:55:53;;;;;;;12.03;5.53;;;5.50;99.90;;;;;;5025013;28;20244;-72
2023/04/05 10:58:43;;;;;;;9.20;5.03;;;5.70;99.90;;;;;;5021465;28;20599;-68
2023/04/05 11:01:34;;;;;;;8.60;4.93;;;5.90;99.90;;;;;;5023111;28;20380;-70
2023/04/05 11:04:23;;;;;;;8.10;4.43;;;6.10;99.90;;;;;;5026639;28;20224;-70
2023/04/05 11:07:15;;;;;;;10.03;5.30;;;6.40;99.90;;;;;;5028115;28;20236;-69
2023/04/05 11:10:05;;;;;;;8.67;5.13;;;6.80;99.90;;;;;;5032271;28;20213;-71
2023/04/05 11:13:11;;;;;;;14.13;5.97;;;6.80;99.90;;;;;;5033865;28;20294;-71
2023/04/05 11:16:09;;;;;;;13.07;5.67;;;6.90;99.90;;;;;;5036327;28;20709;-71
2023/04/05 11:19:01;;;;;;;8.73;5.50;;;7.10;99.90;;;;;;5032971;28;20908;-71
2023/04/05 11:22:01;;;;;;;12.83;6.77;;;7.00;99.90;;;;;;5031109;28;20606;-69
2023/04/05 11:24:55;;;;;;;12.23;5.80;;;7.00;99.90;;;;;;5033487;28;20231;-70
2023/04/05 11:28:01;;;;;;;9.60;5.17;;;6.90;99.90;;;;;;5033502;28;20247;-72
2023/04/05 11:30:52;;;;;;;29.10;17.70;;;6.60;99.90;;;;;;5036568;28;20306;-70
2023/04/05 11:34:09;;;;;;;7.70;5.10;;;6.80;99.90;;;;;;5033387;28;20243;-71
2023/04/05 11:36:58;;;;;;;10.47;5.57;;;6.70;99.90;;;;;;5037704;28;20225;-68
2023/04/05 11:39:47;;;;;;;9.00;4.90;;;7.00;99.90;;;;;;5036013;28;20213;-69
2023/04/05 11:42:37;;;;;;;9.90;5.10;;;7.20;99.90;;;;;;5034267;28;20584;-69
2023/04/05 11:45:26;;;;;;;7.10;4.57;;;6.90;99.90;;;;;;5033125;28;20933;-72
2023/04/05 11:48:18;;;;;;;8.43;4.80;;;6.80;99.90;;;;;;5009254;28;20274;-70
2023/04/05 11:51:09;;;;;;;8.40;4.73;;;6.60;99.90;;;;;;5007132;28;20222;-69
2023/04/05 11:53:59;;;;;;;7.80;4.60;;;6.50;99.90;;;;;;5014354;28;20233;-69
2023/04/05 11:56:51;;;;;;;9.43;5.13;;;6.50;99.90;;;;;;5018706;28;20881;-70
2023/04/05 11:59:42;;;;;;;6.27;4.03;;;6.50;99.90;;;;;;5013906;28;20391;-69
2023/04/05 12:02:35;;;;;;;9.47;4.80;;;6.40;99.90;;;;;;5033651;28;20353;-72
2023/04/05 12:05:24;;;;;;;8.23;4.80;;;6.60;99.90;;;;;;5012668;28;20235;-71
2023/04/05 12:08:13;;;;;;;7.40;4.80;;;6.50;99.90;;;;;;5008218;28;20918;-70
2023/04/05 12:11:02;;;;;;;8.77;5.00;;;6.50;99.90;;;;;;5014468;28;20217;-68
2023/04/05 12:13:54;;;;;;;9.63;4.87;;;6.60;99.90;;;;;;5027146;28;20224;-70
2023/04/05 12:16:51;;;;;;;9.00;4.77;;;6.10;99.90;;;;;;5017064;28;20604;-71
2023/04/05 12:19:40;;;;;;;11.63;5.27;;;6.00;99.90;;;;;;5020263;28;20234;-72
2023/04/05 12:22:29;;;;;;;10.30;4.93;;;5.80;99.90;;;;;;5016547;28;20704;-70
2023/04/05 12:25:20;;;;;;;8.80;5.10;;;5.80;99.90;;;;;;5031789;28;20550;-70
2023/04/05 12:28:10;;;;;;;11.47;5.30;;;5.80;99.90;;;;;;5030376;28;20267;-70
2023/04/05 12:30:59;;;;;;;9.23;5.23;;;6.00;99.90;;;;;;5034478;28;20340;-71
2023/04/05 12:33:49;;;;;;;8.97;4.87;;;6.10;99.90;;;;;;5032451;28;20240;-75
2023/04/05 12:36:39;;;;;;;11.37;4.87;;;6.00;99.90;;;;;;5036009;28;20277;-74
2023/04/05 12:39:30;;;;;;;7.33;4.60;;;6.00;99.90;;;;;;5040922;28;20724;-74
2023/04/05 12:42:19;;;;;;;5.67;4.50;;;5.50;99.90;;;;;;5033830;28;20321;-80
2023/04/05 12:45:12;;;;;;;9.37;5.07;;;5.50;99.90;;;;;;5037359;28;20915;-78
2023/04/05 12:48:01;;;;;;;7.13;4.63;;;5.80;99.90;;;;;;5037212;28;20222;-80
2023/04/05 12:50:53;;;;;;;8.37;5.03;;;5.80;99.90;;;;;;5036198;28;20712;-78
2023/04/05 12:53:46;;;;;;;10.67;4.90;;;5.90;99.90;;;;;;5029648;28;20230;-79
2023/04/05 12:56:35;;;;;;;9.30;5.00;;;5.90;99.90;;;;;;5033571;28;20225;-78
2023/04/05 12:59:25;;;;;;;10.27;5.00;;;5.60;99.90;;;;;;5034576;28;20904;-74
2023/04/05 13:02:13;;;;;;;7.40;5.10;;;5.60;99.90;;;;;;5032039;28;20240;-70
2023/04/05 13:05:02;;;;;;;8.03;4.53;;;6.00;99.90;;;;;;5029218;28;20310;-72
2023/04/05 13:07:57;;;;;;;8.40;4.93;;;6.10;99.90;;;;;;5033752;28;20228;-73
2023/04/05 13:10:50;;;;;;;8.80;5.60;;;6.50;99.90;;;;;;5017130;28;20232;-79
2023/04/05 13:13:40;;;;;;;7.87;5.40;;;6.40;99.90;;;;;;5013026;28;20720;-72
2023/04/05 13:16:28;;;;;;;10.73;5.23;;;6.60;99.90;;;;;;5015660;28;20252;-75
2023/04/05 13:19:18;;;;;;;8.77;5.20;;;6.30;99.90;;;;;;5020926;28;20225;-74
2023/04/05 13:22:06;;;;;;;8.10;5.10;;;6.40;99.90;;;;;;5022967;28;20331;-73
2023/04/05 13:24:57;;;;;;;8.97;5.00;;;6.60;99.90;;;;;;5032503;28;20240;-73
2023/04/05 13:27:46;;;;;;;8.43;5.27;;;6.60;99.90;;;;;;5034666;28;20716;-72
2023/04/05 13:30:35;;;;;;;9.37;5.23;;;7.00;99.90;;;;;;5040050;28;20224;-73
2023/04/05 13:33:24;;;;;;;10.47;5.17;;;6.70;99.90;;;;;;5040992;28;20266;-74
2023/04/05 13:36:13;;;;;;;8.37;5.30;;;6.70;99.90;;;;;;5034559;28;20878;-73
2023/04/05 13:39:02;;;;;;;14.17;5.63;;;6.80;99.90;;;;;;5031428;28;20596;-68
2023/04/05 13:41:52;;;;;;;9.07;4.93;;;6.90;99.90;;;;;;5039404;28;20221;-72
2023/04/05 13:44:41;;;;;;;8.63;5.07;;;6.90;99.90;;;;;;5015838;28;20313;-72
2023/04/05 13:47:29;;;;;;;8.70;5.13;;;7.10;99.90;;;;;;5029396;28;20659;-71
2023/04/05 13:50:18;;;;;;;8.47;4.93;;;7.00;99.90;;;;;;5013997;28;20706;-70
2023/04/05 13:53:08;;;;;;;10.07;5.40;;;6.80;99.90;;;;;;5013337;28;20226;-71
2023/04/05 13:55:56;;;;;;;8.63;5.27;;;6.80;99.90;;;;;;5007726;28;20217;-72
2023/04/05 13:58:47;;;;;;;10.90;5.33;;;6.80;99.90;;;;;;5014053;28;21051;-70
2023/04/05 14:01:36;;;;;;;11.53;5.90;;;6.90;99.90;;;;;;5033791;28;20298;-73
2023/04/05 14:04:25;;;;;;;13.10;6.73;;;7.00;99.90;;;;;;5005651;28;20235;-73
2023/04/05 14:07:14;;;;;;;11.00;5.63;;;6.90;99.90;;;;;;5040572;28;20703;-71
2023/04/05 14:10:04;;;;;;;8.57;5.53;;;6.80;99.90;;;;;;5041726;28;20361;-71
2023/04/05 14:12:53;;;;;;;11.43;5.93;;;6.70;99.90;;;;;;5025327;28;20400;-72
2023/04/05 14:15:43;;;;;;;13.83;5.77;;;6.80;99.90;;;;;;5033248;28;20274;-73
2023/04/05 14:18:32;;;;;;;12.90;5.43;;;6.90;99.90;;;;;;5035830;28;20237;-69
2023/04/05 14:21:21;;;;;;;10.47;5.90;;;6.90;99.90;;;;;;5030488;28;20218;-72
2023/04/05 14:24:12;;;;;;;8.17;5.00;;;6.90;99.90;;;;;;5032932;28;21038;-74
2023/04/05 14:27:02;;;;;;;9.97;5.70;;;6.70;99.90;;;;;;5041428;28;20975;-73
2023/04/05 14:29:51;;;;;;;13.30;5.80;;;6.80;99.90;;;;;;5031853;28;20234;-74
2023/04/05 14:32:42;;;;;;;8.60;5.37;;;6.80;99.90;;;;;;5016753;28;20261;-72
2023/04/05 14:35:31;;;;;;;9.73;5.20;;;6.70;99.90;;;;;;5022536;28;20224;-73
2023/04/05 14:38:20;;;;;;;9.80;5.03;;;6.90;99.90;;;;;;5027889;28;20221;-71
2023/04/05 14:41:09;;;;;;;9.37;5.53;;;6.90;99.90;;;;;;5033648;28;21056;-69
2023/04/05 14:43:59;;;;;;;10.73;6.27;;;7.00;99.90;;;;;;5033579;28;20221;-70
2023/04/05 14:46:49;;;;;;;17.30;7.30;;;6.40;99.90;;;;;;5035188;28;20256;-73
2023/04/05 14:49:39;;;;;;;14.63;6.70;;;6.20;99.90;;;;;;5021673;28;20272;-72
2023/04/05 14:52:28;;;;;;;11.87;6.50;;;6.00;99.90;;;;;;5015063;28;20225;-73
2023/04/05 14:55:17;;;;;;;11.57;6.17;;;5.90;99.90;;;;;;5016765;28;20585;-73